sensor_id;sensor_type;location;lat;lon;timestamp;pressure;altitude;pressure_sealevel;temperature;humidity
73453;BME280;61687;56.232;43.854;2023-06-19T05:11:14;100937.34;;;13.21;48.41
73453;BME280;61687;56.232;43.854;2023-06-19T05:13:40;100929.25;;;13.36;47.63
73453;BME280;61687;56.232;43.854;2023-06-19T05:16:06;100938.66;;;13.58;47.67
73453;BME280;61687;56.232;43.854;2023-06-19T05:18:31;100934.66;;;13.82;46.84
73453;BME280;61687;56.232;43.854;2023-06-19T05:20:57;100934.53;;;14.06;45.97
73453;BME280;61687;56.232;43.854;2023-06-19T05:23:23;100934.34;;;14.25;45.89
73453;BME280;61687;56.232;43.854;2023-06-19T05:25:49;100941.22;;;14.42;45.53
73453;BME280;61687;56.232;43.854;2023-06-19T05:28:15;100933.94;;;14.65;45.85
73453;BME280;61687;56.232;43.854;2023-06-19T05:30:40;100929.31;;;14.72;45.13
73453;BME280;61687;56.232;43.854;2023-06-19T05:33:06;100936.09;;;14.82;44.80
73453;BME280;61687;56.232;43.854;2023-06-19T05:35:32;100932.44;;;14.71;42.34
73453;BME280;61687;56.232;43.854;2023-06-19T05:37:58;100926.22;;;14.78;41.77
73453;BME280;61687;56.232;43.854;2023-06-19T05:40:24;100932.94;;;14.80;41.80
73453;BME280;61687;56.232;43.854;2023-06-19T05:42:49;100921.53;;;14.85;42.26
73453;BME280;61687;56.232;43.854;2023-06-19T05:45:15;100913.31;;;14.93;42.19
73453;BME280;61687;56.232;43.854;2023-06-19T05:47:41;100920.13;;;15.06;42.27
73453;BME280;61687;56.232;43.854;2023-06-19T05:50:07;100915.13;;;15.26;41.80
73453;BME280;61687;56.232;43.854;2023-06-19T05:52:33;100908.50;;;15.42;42.19
73453;BME280;61687;56.232;43.854;2023-06-19T05:54:59;100902.63;;;15.51;41.92
73453;BME280;61687;56.232;43.854;2023-06-19T05:57:26;100912.09;;;15.50;40.88
73453;BME280;61687;56.232;43.854;2023-06-19T05:59:51;100917.19;;;15.44;40.02
73453;BME280;61687;56.232;43.854;2023-06-19T06:02:19;100912.38;;;15.30;40.92
73453;BME280;61687;56.232;43.854;2023-06-19T06:04:45;100910.78;;;15.25;40.12
73453;BME280;61687;56.232;43.854;2023-06-19T06:07:11;100910.09;;;15.43;40.66
73453;BME280;61687;56.232;43.854;2023-06-19T06:09:37;100905.31;;;15.36;39.73
73453;BME280;61687;56.232;43.854;2023-06-19T06:12:04;100902.25;;;15.56;40.54
73453;BME280;61687;56.232;43.854;2023-06-19T06:14:30;100910.16;;;15.54;39.42
73453;BME280;61687;56.232;43.854;2023-06-19T06:16:56;100903.53;;;15.69;40.17
73453;BME280;61687;56.232;43.854;2023-06-19T06:19:22;100906.31;;;15.80;40.42
73453;BME280;61687;56.232;43.854;2023-06-19T06:21:51;100902.47;;;15.99;39.77
73453;BME280;61687;56.232;43.854;2023-06-19T06:24:17;100919.84;;;15.93;39.47
73453;BME280;61687;56.232;43.854;2023-06-19T06:26:43;100900.50;;;15.93;39.32
73453;BME280;61687;56.232;43.854;2023-06-19T06:29:09;100897.97;;;15.66;37.36
73453;BME280;61687;56.232;43.854;2023-06-19T06:31:37;100911.69;;;15.48;37.44
73453;BME280;61687;56.232;43.854;2023-06-19T06:34:03;100901.47;;;15.59;37.65
73453;BME280;61687;56.232;43.854;2023-06-19T06:36:29;100897.56;;;15.60;37.76
73453;BME280;61687;56.232;43.854;2023-06-19T06:38:55;100886.94;;;15.69;38.13
73453;BME280;61687;56.232;43.854;2023-06-19T06:41:21;100888.59;;;15.85;38.22
73453;BME280;61687;56.232;43.854;2023-06-19T06:43:46;100900.09;;;15.94;37.95
73453;BME280;61687;56.232;43.854;2023-06-19T06:46:13;100898.16;;;16.06;37.64
73453;BME280;61687;56.232;43.854;2023-06-19T06:48:40;100877.63;;;16.17;37.09
73453;BME280;61687;56.232;43.854;2023-06-19T06:51:05;100885.50;;;16.08;36.82
73453;BME280;61687;56.232;43.854;2023-06-19T06:53:31;100882.75;;;16.12;37.88
73453;BME280;61687;56.232;43.854;2023-06-19T06:55:58;100873.28;;;16.13;38.43
73453;BME280;61687;56.232;43.854;2023-06-19T06:58:26;100872.50;;;16.20;38.73
73453;BME280;61687;56.232;43.854;2023-06-19T07:00:52;100874.47;;;16.30;38.02
73453;BME280;61687;56.232;43.854;2023-06-19T07:03:18;100867.00;;;16.30;37.96
73453;BME280;61687;56.232;43.854;2023-06-19T07:05:44;100867.38;;;16.25;37.52
73453;BME280;61687;56.232;43.854;2023-06-19T07:08:10;100855.50;;;16.14;36.61
73453;BME280;61687;56.232;43.854;2023-06-19T07:10:55;100869.34;;;16.25;35.45
73453;BME280;61687;56.232;43.854;2023-06-19T07:13:21;100853.53;;;16.22;36.52
73453;BME280;61687;56.232;43.854;2023-06-19T07:15:47;100857.91;;;16.41;37.26
73453;BME280;61687;56.232;43.854;2023-06-19T07:18:12;100858.28;;;16.68;37.54
73453;BME280;61687;56.232;43.854;2023-06-19T07:20:38;100845.66;;;16.71;37.54
73453;BME280;61687;56.232;43.854;2023-06-19T07:23:04;100862.25;;;16.67;37.36
73453;BME280;61687;56.232;43.854;2023-06-19T07:25:30;100868.19;;;16.58;36.62
73453;BME280;61687;56.232;43.854;2023-06-19T07:27:59;100853.16;;;16.49;34.71
73453;BME280;61687;56.232;43.854;2023-06-19T07:30:26;100867.38;;;16.51;34.03
73453;BME280;61687;56.232;43.854;2023-06-19T07:32:52;100870.16;;;16.43;34.11
73453;BME280;61687;56.232;43.854;2023-06-19T07:35:18;100851.16;;;16.24;34.98
73453;BME280;61687;56.232;43.854;2023-06-19T07:37:44;100846.03;;;16.37;35.33
73453;BME280;61687;56.232;43.854;2023-06-19T07:40:11;100859.09;;;16.33;34.66
73453;BME280;61687;56.232;43.854;2023-06-19T07:42:37;100842.88;;;16.53;35.00
73453;BME280;61687;56.232;43.854;2023-06-19T07:45:03;100872.50;;;16.81;35.20
73453;BME280;61687;56.232;43.854;2023-06-19T07:47:30;100853.94;;;16.64;34.62
73453;BME280;61687;56.232;43.854;2023-06-19T07:49:56;100848.81;;;16.66;34.94
73453;BME280;61687;56.232;43.854;2023-06-19T07:52:22;100849.97;;;16.94;35.54
73453;BME280;61687;56.232;43.854;2023-06-19T07:54:52;100849.97;;;16.90;35.74
73453;BME280;61687;56.232;43.854;2023-06-19T07:57:19;100844.44;;;17.01;35.81
73453;BME280;61687;56.232;43.854;2023-06-19T07:59:46;100844.38;;;17.30;36.52
73453;BME280;61687;56.232;43.854;2023-06-19T08:02:12;100846.25;;;17.55;35.48
73453;BME280;61687;56.232;43.854;2023-06-19T08:04:38;100848.56;;;17.67;34.02
73453;BME280;61687;56.232;43.854;2023-06-19T08:07:04;100861.22;;;17.72;34.60
73453;BME280;61687;56.232;43.854;2023-06-19T08:09:30;100853.34;;;17.63;34.44
73453;BME280;61687;56.232;43.854;2023-06-19T08:11:57;100843.38;;;17.77;34.68
73453;BME280;61687;56.232;43.854;2023-06-19T08:14:23;100847.72;;;17.78;34.71
73453;BME280;61687;56.232;43.854;2023-06-19T08:16:48;100855.50;;;17.08;34.03
73453;BME280;61687;56.232;43.854;2023-06-19T08:19:14;100850.75;;;17.09;35.14
73453;BME280;61687;56.232;43.854;2023-06-19T08:21:40;100842.41;;;17.23;33.98
73453;BME280;61687;56.232;43.854;2023-06-19T08:24:06;100823.75;;;17.35;34.45
73453;BME280;61687;56.232;43.854;2023-06-19T08:26:32;100826.88;;;17.51;34.39
73453;BME280;61687;56.232;43.854;2023-06-19T08:28:57;100835.47;;;17.71;34.91
73453;BME280;61687;56.232;43.854;2023-06-19T08:31:23;100828.00;;;17.57;34.95
73453;BME280;61687;56.232;43.854;2023-06-19T08:33:56;100823.31;;;17.47;35.07
73453;BME280;61687;56.232;43.854;2023-06-19T08:36:23;100836.75;;;17.56;35.42
73453;BME280;61687;56.232;43.854;2023-06-19T08:38:49;100825.63;;;17.59;35.88
73453;BME280;61687;56.232;43.854;2023-06-19T08:41:17;100822.47;;;17.61;35.96
73453;BME280;61687;56.232;43.854;2023-06-19T08:43:45;100823.59;;;17.74;36.09
73453;BME280;61687;56.232;43.854;2023-06-19T08:46:18;100808.94;;;17.70;35.84
73453;BME280;61687;56.232;43.854;2023-06-19T08:48:45;100817.25;;;17.70;35.30
73453;BME280;61687;56.232;43.854;2023-06-19T08:51:11;100811.44;;;17.54;35.58
73453;BME280;61687;56.232;43.854;2023-06-19T08:53:54;100803.44;;;17.67;36.14
73453;BME280;61687;56.232;43.854;2023-06-19T08:56:21;100816.06;;;17.75;35.51
73453;BME280;61687;56.232;43.854;2023-06-19T08:58:46;100806.78;;;18.00;36.03
73453;BME280;61687;56.232;43.854;2023-06-19T09:01:17;100812.81;;;18.48;35.36
73453;BME280;61687;56.232;43.854;2023-06-19T09:03:43;100814.38;;;18.49;34.55
73453;BME280;61687;56.232;43.854;2023-06-19T09:06:17;100797.66;;;18.07;35.12
73453;BME280;61687;56.232;43.854;2023-06-19T09:08:43;100811.31;;;17.72;35.16
73453;BME280;61687;56.232;43.854;2023-06-19T09:11:11;100814.16;;;17.65;36.24
73453;BME280;61687;56.232;43.854;2023-06-19T09:13:37;100804.50;;;17.87;36.39
73453;BME280;61687;56.232;43.854;2023-06-19T09:16:07;100824.63;;;17.99;35.03
73453;BME280;61687;56.232;43.854;2023-06-19T09:18:47;100798.50;;;17.96;34.52
73453;BME280;61687;56.232;43.854;2023-06-19T09:21:21;100797.94;;;18.23;34.86
73453;BME280;61687;56.232;43.854;2023-06-19T09:23:50;100796.84;;;18.55;35.09
73453;BME280;61687;56.232;43.854;2023-06-19T09:26:26;100791.59;;;18.23;34.83
73453;BME280;61687;56.232;43.854;2023-06-19T09:28:51;100794.50;;;18.05;35.42
73453;BME280;61687;56.232;43.854;2023-06-19T09:31:17;100783.81;;;17.99;35.99
73453;BME280;61687;56.232;43.854;2023-06-19T09:33:43;100790.56;;;18.02;36.07
73453;BME280;61687;56.232;43.854;2023-06-19T09:36:09;100781.63;;;17.72;36.08
73453;BME280;61687;56.232;43.854;2023-06-19T09:38:36;100784.22;;;17.98;36.42
73453;BME280;61687;56.232;43.854;2023-06-19T09:41:09;100783.34;;;18.12;35.56
73453;BME280;61687;56.232;43.854;2023-06-19T09:43:42;100770.66;;;18.14;35.64
73453;BME280;61687;56.232;43.854;2023-06-19T09:46:10;100775.22;;;17.83;35.49
73453;BME280;61687;56.232;43.854;2023-06-19T09:48:44;100775.84;;;18.09;35.46
73453;BME280;61687;56.232;43.854;2023-06-19T09:51:23;100761.88;;;18.23;35.02
73453;BME280;61687;56.232;43.854;2023-06-19T09:53:53;100754.22;;;18.35;34.94
73453;BME280;61687;56.232;43.854;2023-06-19T09:56:19;100763.44;;;18.24;34.20
73453;BME280;61687;56.232;43.854;2023-06-19T09:58:51;100751.00;;;17.94;34.54
73453;BME280;61687;56.232;43.854;2023-06-19T10:01:18;100759.03;;;17.78;35.30
73453;BME280;61687;56.232;43.854;2023-06-19T10:03:45;100753.50;;;17.74;35.01
73453;BME280;61687;56.232;43.854;2023-06-19T10:06:17;100753.34;;;17.96;36.01
73453;BME280;61687;56.232;43.854;2023-06-19T10:08:45;100761.22;;;18.08;33.83
73453;BME280;61687;56.232;43.854;2023-06-19T10:11:11;100755.88;;;18.28;33.86
73453;BME280;61687;56.232;43.854;2023-06-19T10:13:40;100768.81;;;18.46;32.78
73453;BME280;61687;56.232;43.854;2023-06-19T10:16:07;100751.41;;;18.42;32.00
73453;BME280;61687;56.232;43.854;2023-06-19T10:18:45;100744.78;;;18.70;32.12
73453;BME280;61687;56.232;43.854;2023-06-19T10:21:19;100739.06;;;19.20;32.54
73453;BME280;61687;56.232;43.854;2023-06-19T10:23:54;100736.88;;;20.37;31.61
73453;BME280;61687;56.232;43.854;2023-06-19T10:26:32;100733.94;;;22.15;29.15
73453;BME280;61687;56.232;43.854;2023-06-19T10:28:58;100727.16;;;24.09;26.49
73453;BME280;61687;56.232;43.854;2023-06-19T10:31:24;100716.13;;;25.17;25.28
73453;BME280;61687;56.232;43.854;2023-06-19T10:33:50;100721.59;;;25.20;23.54
73453;BME280;61687;56.232;43.854;2023-06-19T10:36:21;100723.00;;;25.47;23.10
73453;BME280;61687;56.232;43.854;2023-06-19T10:38:51;100715.94;;;26.02;23.94
73453;BME280;61687;56.232;43.854;2023-06-19T10:41:18;100718.81;;;27.29;22.88
73453;BME280;61687;56.232;43.854;2023-06-19T10:44:03;100709.88;;;28.52;20.87
73453;BME280;61687;56.232;43.854;2023-06-19T10:46:36;100705.44;;;28.91;20.35
73453;BME280;61687;56.232;43.854;2023-06-19T10:49:04;100708.31;;;28.36;20.33
73453;BME280;61687;56.232;43.854;2023-06-19T10:51:30;100704.34;;;28.43;21.21
73453;BME280;61687;56.232;43.854;2023-06-19T10:53:57;100702.84;;;28.33;21.58
73453;BME280;61687;56.232;43.854;2023-06-19T10:56:24;100701.72;;;28.54;21.46
73453;BME280;61687;56.232;43.854;2023-06-19T10:59:01;100711.22;;;27.78;22.01
73453;BME280;61687;56.232;43.854;2023-06-19T11:01:37;100709.97;;;28.28;21.54
73453;BME280;61687;56.232;43.854;2023-06-19T11:04:07;100719.19;;;28.98;19.52
73453;BME280;61687;56.232;43.854;2023-06-19T11:06:34;100707.13;;;28.82;20.74
73453;BME280;61687;56.232;43.854;2023-06-19T11:09:00;100707.69;;;27.93;21.53
73453;BME280;61687;56.232;43.854;2023-06-19T11:11:38;100702.91;;;27.50;22.26
73453;BME280;61687;56.232;43.854;2023-06-19T11:14:05;100695.91;;;27.03;23.05
73453;BME280;61687;56.232;43.854;2023-06-19T11:16:33;100710.81;;;26.38;24.07
73453;BME280;61687;56.232;43.854;2023-06-19T11:19:00;100691.97;;;24.43;25.69
73453;BME280;61687;56.232;43.854;2023-06-19T11:21:30;100691.72;;;25.36;24.22
73453;BME280;61687;56.232;43.854;2023-06-19T11:23:58;100683.50;;;24.56;25.77
73453;BME280;61687;56.232;43.854;2023-06-19T11:26:27;100681.25;;;25.27;24.45
73453;BME280;61687;56.232;43.854;2023-06-19T11:28:53;100686.69;;;24.67;24.71
73453;BME280;61687;56.232;43.854;2023-06-19T11:31:25;100695.69;;;24.05;25.54
73453;BME280;61687;56.232;43.854;2023-06-19T11:33:57;100684.47;;;26.35;23.71
73453;BME280;61687;56.232;43.854;2023-06-19T11:36:23;100664.09;;;28.73;21.85
73453;BME280;61687;56.232;43.854;2023-06-19T11:38:52;100662.97;;;30.07;20.71
73453;BME280;61687;56.232;43.854;2023-06-19T11:41:28;100666.84;;;30.10;19.50
73453;BME280;61687;56.232;43.854;2023-06-19T11:44:05;100666.53;;;30.81;20.08
73453;BME280;61687;56.232;43.854;2023-06-19T11:46:32;100661.81;;;31.05;18.63
73453;BME280;61687;56.232;43.854;2023-06-19T11:49:14;100649.06;;;30.04;20.15
73453;BME280;61687;56.232;43.854;2023-06-19T11:51:42;100650.47;;;29.52;19.97
73453;BME280;61687;56.232;43.854;2023-06-19T11:54:09;100646.66;;;30.76;19.50
73453;BME280;61687;56.232;43.854;2023-06-19T11:56:36;100655.69;;;31.12;18.67
73453;BME280;61687;56.232;43.854;2023-06-19T11:59:02;100646.91;;;30.19;19.28
73453;BME280;61687;56.232;43.854;2023-06-19T12:01:31;100635.78;;;30.36;19.13
73453;BME280;61687;56.232;43.854;2023-06-19T12:03:57;100637.16;;;31.54;17.90
73453;BME280;61687;56.232;43.854;2023-06-19T12:06:23;100644.56;;;31.95;17.54
73453;BME280;61687;56.232;43.854;2023-06-19T12:08:49;100638.88;;;30.97;17.64
73453;BME280;61687;56.232;43.854;2023-06-19T12:11:15;100630.47;;;32.87;17.06
73453;BME280;61687;56.232;43.854;2023-06-19T12:13:41;100629.59;;;31.34;17.70
73453;BME280;61687;56.232;43.854;2023-06-19T12:16:08;100619.66;;;29.95;18.62
73453;BME280;61687;56.232;43.854;2023-06-19T12:18:35;100622.06;;;30.29;19.19
73453;BME280;61687;56.232;43.854;2023-06-19T12:21:00;100620.91;;;29.94;19.89
73453;BME280;61687;56.232;43.854;2023-06-19T12:23:26;100604.50;;;28.65;19.96
73453;BME280;61687;56.232;43.854;2023-06-19T12:25:52;100611.91;;;27.20;21.12
73453;BME280;61687;56.232;43.854;2023-06-19T12:28:18;100605.25;;;27.08;21.72
73453;BME280;61687;56.232;43.854;2023-06-19T12:30:44;100607.56;;;26.66;21.99
73453;BME280;61687;56.232;43.854;2023-06-19T12:33:11;100611.13;;;25.27;23.53
73453;BME280;61687;56.232;43.854;2023-06-19T12:35:40;100602.34;;;24.75;24.17
73453;BME280;61687;56.232;43.854;2023-06-19T12:38:07;100605.09;;;23.98;25.10
73453;BME280;61687;56.232;43.854;2023-06-19T12:40:33;100603.03;;;24.56;24.80
73453;BME280;61687;56.232;43.854;2023-06-19T12:42:59;100595.88;;;24.55;25.33
73453;BME280;61687;56.232;43.854;2023-06-19T12:45:25;100598.91;;;24.48;25.28
73453;BME280;61687;56.232;43.854;2023-06-19T12:47:51;100595.03;;;24.46;25.18
73453;BME280;61687;56.232;43.854;2023-06-19T12:50:17;100594.75;;;24.75;25.14
73453;BME280;61687;56.232;43.854;2023-06-19T12:52:43;100577.84;;;26.32;24.01
73453;BME280;61687;56.232;43.854;2023-06-19T12:55:09;100588.13;;;27.54;22.81
73453;BME280;61687;56.232;43.854;2023-06-19T12:57:35;100567.66;;;28.08;22.34
73453;BME280;61687;56.232;43.854;2023-06-19T13:00:02;100563.59;;;29.26;21.46
73453;BME280;61687;56.232;43.854;2023-06-19T13:02:32;100567.06;;;29.15;21.21
73453;BME280;61687;56.232;43.854;2023-06-19T13:04:58;100570.31;;;27.24;22.64
73453;BME280;61687;56.232;43.854;2023-06-19T13:07:24;100571.34;;;25.79;24.24
73453;BME280;61687;56.232;43.854;2023-06-19T13:09:50;100561.97;;;24.94;25.78
73453;BME280;61687;56.232;43.854;2023-06-19T13:12:15;100558.22;;;25.48;25.86
73453;BME280;61687;56.232;43.854;2023-06-19T13:14:41;100552.16;;;24.99;25.99
73453;BME280;61687;56.232;43.854;2023-06-19T13:17:08;100562.97;;;25.19;25.88
73453;BME280;61687;56.232;43.854;2023-06-19T13:19:33;100549.31;;;24.80;25.94
73453;BME280;61687;56.232;43.854;2023-06-19T13:21:59;100558.81;;;26.26;24.73
73453;BME280;61687;56.232;43.854;2023-06-19T13:24:25;100555.41;;;25.85;24.63
73453;BME280;61687;56.232;43.854;2023-06-19T13:26:54;100552.81;;;25.03;25.59
73453;BME280;61687;56.232;43.854;2023-06-19T13:29:20;100549.19;;;24.62;26.53
73453;BME280;61687;56.232;43.854;2023-06-19T13:31:46;100545.66;;;22.98;28.20
73453;BME280;61687;56.232;43.854;2023-06-19T13:34:12;100537.63;;;22.48;28.79
73453;BME280;61687;56.232;43.854;2023-06-19T13:36:38;100552.00;;;21.75;30.26
73453;BME280;61687;56.232;43.854;2023-06-19T13:39:05;100550.81;;;21.59;30.54
73453;BME280;61687;56.232;43.854;2023-06-19T13:41:31;100548.78;;;21.76;30.56
73453;BME280;61687;56.232;43.854;2023-06-19T13:44:01;100542.44;;;21.76;31.22
73453;BME280;61687;56.232;43.854;2023-06-19T13:46:27;100545.28;;;21.89;30.89
73453;BME280;61687;56.232;43.854;2023-06-19T13:48:53;100545.75;;;21.70;31.25
73453;BME280;61687;56.232;43.854;2023-06-19T13:51:23;100539.38;;;21.53;31.22
73453;BME280;61687;56.232;43.854;2023-06-19T13:53:50;100535.75;;;21.40;31.75
73453;BME280;61687;56.232;43.854;2023-06-19T13:56:16;100539.59;;;21.46;31.72
73453;BME280;61687;56.232;43.854;2023-06-19T13:58:42;100541.25;;;21.27;32.10
73453;BME280;61687;56.232;43.854;2023-06-19T14:01:09;100537.91;;;21.49;32.30
73453;BME280;61687;56.232;43.854;2023-06-19T14:03:37;100536.84;;;21.76;32.18
73453;BME280;61687;56.232;43.854;2023-06-19T14:06:03;100541.16;;;21.14;32.32
73453;BME280;61687;56.232;43.854;2023-06-19T14:08:29;100530.63;;;21.05;32.96
73453;BME280;61687;56.232;43.854;2023-06-19T14:10:55;100527.50;;;21.20;32.97
73453;BME280;61687;56.232;43.854;2023-06-19T14:13:21;100528.72;;;21.35;32.75
73453;BME280;61687;56.232;43.854;2023-06-19T14:15:47;100534.28;;;21.02;32.86
73453;BME280;61687;56.232;43.854;2023-06-19T14:18:13;100517.66;;;20.62;33.60
73453;BME280;61687;56.232;43.854;2023-06-19T14:20:39;100525.09;;;20.11;34.15
73453;BME280;61687;56.232;43.854;2023-06-19T14:23:07;100530.66;;;19.91;34.97
73453;BME280;61687;56.232;43.854;2023-06-19T14:25:34;100524.97;;;20.19;34.49
73453;BME280;61687;56.232;43.854;2023-06-19T14:28:00;100531.91;;;19.86;35.38
73453;BME280;61687;56.232;43.854;2023-06-19T14:30:26;100528.44;;;19.58;35.45
73453;BME280;61687;56.232;43.854;2023-06-19T14:32:51;100523.25;;;19.61;35.33
73453;BME280;61687;56.232;43.854;2023-06-19T14:35:17;100517.19;;;19.66;35.67
73453;BME280;61687;56.232;43.854;2023-06-19T14:37:43;100518.00;;;19.42;35.86
73453;BME280;61687;56.232;43.854;2023-06-19T14:40:09;100517.16;;;19.45;35.86
73453;BME280;61687;56.232;43.854;2023-06-19T14:42:36;100513.28;;;19.39;36.36
73453;BME280;61687;56.232;43.854;2023-06-19T14:45:02;100519.94;;;19.45;36.03
73453;BME280;61687;56.232;43.854;2023-06-19T14:47:29;100521.25;;;19.61;35.80
73453;BME280;61687;56.232;43.854;2023-06-19T14:49:55;100519.56;;;19.87;35.47
73453;BME280;61687;56.232;43.854;2023-06-19T14:52:20;100517.91;;;20.51;34.25
73453;BME280;61687;56.232;43.854;2023-06-19T14:54:47;100517.09;;;20.34;34.59
73453;BME280;61687;56.232;43.854;2023-06-19T14:57:13;100508.41;;;19.91;35.64
73453;BME280;61687;56.232;43.854;2023-06-19T14:59:39;100506.41;;;19.92;35.79
73453;BME280;61687;56.232;43.854;2023-06-19T15:02:05;100504.25;;;19.99;35.55
73453;BME280;61687;56.232;43.854;2023-06-19T15:04:33;100501.34;;;20.07;35.74
73453;BME280;61687;56.232;43.854;2023-06-19T15:06:59;100500.34;;;20.17;35.71
73453;BME280;61687;56.232;43.854;2023-06-19T15:09:25;100496.47;;;19.91;36.01
73453;BME280;61687;56.232;43.854;2023-06-19T15:11:52;100491.66;;;19.71;36.08
73453;BME280;61687;56.232;43.854;2023-06-19T15:14:18;100496.59;;;19.63;35.97
73453;BME280;61687;56.232;43.854;2023-06-19T15:16:45;100494.22;;;19.62;36.20
73453;BME280;61687;56.232;43.854;2023-06-19T15:19:11;100483.97;;;19.79;36.25
73453;BME280;61687;56.232;43.854;2023-06-19T15:21:37;100489.84;;;20.05;35.84
73453;BME280;61687;56.232;43.854;2023-06-19T15:24:03;100497.19;;;20.15;35.36
73453;BME280;61687;56.232;43.854;2023-06-19T15:26:29;100483.47;;;20.24;35.83
73453;BME280;61687;56.232;43.854;2023-06-19T15:28:55;100484.91;;;20.12;35.81
73453;BME280;61687;56.232;43.854;2023-06-19T15:31:22;100487.63;;;20.16;35.40
73453;BME280;61687;56.232;43.854;2023-06-19T15:33:48;100484.63;;;19.86;35.68
73453;BME280;61687;56.232;43.854;2023-06-19T15:36:15;100493.78;;;20.07;35.12
73453;BME280;61687;56.232;43.854;2023-06-19T15:38:41;100487.34;;;20.10;35.27
73453;BME280;61687;56.232;43.854;2023-06-19T15:41:07;100490.59;;;20.25;35.31
73453;BME280;61687;56.232;43.854;2023-06-19T15:43:33;100488.47;;;20.33;35.25
73453;BME280;61687;56.232;43.854;2023-06-19T15:45:59;100474.19;;;20.31;35.54
73453;BME280;61687;56.232;43.854;2023-06-19T15:48:24;100482.00;;;19.99;35.75
73453;BME280;61687;56.232;43.854;2023-06-19T15:50:50;100482.06;;;20.16;35.93
73453;BME280;61687;56.232;43.854;2023-06-19T15:53:16;100482.88;;;19.96;35.87
73453;BME280;61687;56.232;43.854;2023-06-19T15:55:42;100473.94;;;19.85;36.22
73453;BME280;61687;56.232;43.854;2023-06-19T15:58:08;100483.22;;;19.98;36.70
73453;BME280;61687;56.232;43.854;2023-06-19T16:00:34;100469.88;;;20.10;36.23
73453;BME280;61687;56.232;43.854;2023-06-19T16:03:00;100473.16;;;20.05;36.22
73453;BME280;61687;56.232;43.854;2023-06-19T16:05:26;100467.19;;;19.62;36.45
73453;BME280;61687;56.232;43.854;2023-06-19T16:07:52;100468.22;;;19.52;37.13
73453;BME280;61687;56.232;43.854;2023-06-19T16:10:19;100479.31;;;19.52;37.47
73453;BME280;61687;56.232;43.854;2023-06-19T16:12:45;100470.38;;;19.40;37.60
73453;BME280;61687;56.232;43.854;2023-06-19T16:15:11;100470.69;;;19.46;37.72
73453;BME280;61687;56.232;43.854;2023-06-19T16:17:42;100462.69;;;19.28;37.66
73453;BME280;61687;56.232;43.854;2023-06-19T16:20:09;100463.09;;;19.26;37.90
73453;BME280;61687;56.232;43.854;2023-06-19T16:22:35;100465.88;;;19.26;37.87
73453;BME280;61687;56.232;43.854;2023-06-19T16:25:02;100461.97;;;19.24;38.25
73453;BME280;61687;56.232;43.854;2023-06-19T16:27:28;100452.28;;;19.32;37.90
73453;BME280;61687;56.232;43.854;2023-06-19T16:29:54;100456.03;;;19.45;38.24
73453;BME280;61687;56.232;43.854;2023-06-19T16:32:20;100455.22;;;19.45;37.63
73453;BME280;61687;56.232;43.854;2023-06-19T16:34:46;100451.97;;;19.26;37.86
73453;BME280;61687;56.232;43.854;2023-06-19T16:37:12;100448.28;;;19.33;38.27
73453;BME280;61687;56.232;43.854;2023-06-19T16:39:38;100439.91;;;19.37;37.81
73453;BME280;61687;56.232;43.854;2023-06-19T16:42:05;100443.91;;;19.36;38.14
73453;BME280;61687;56.232;43.854;2023-06-19T16:44:31;100443.22;;;19.28;38.10
73453;BME280;61687;56.232;43.854;2023-06-19T16:46:57;100443.03;;;18.91;38.42
73453;BME280;61687;56.232;43.854;2023-06-19T16:49:25;100443.44;;;18.66;38.67
73453;BME280;61687;56.232;43.854;2023-06-19T16:51:51;100434.25;;;18.69;38.74
73453;BME280;61687;56.232;43.854;2023-06-19T16:54:17;100430.16;;;18.77;38.86
73453;BME280;61687;56.232;43.854;2023-06-19T16:56:43;100426.50;;;18.56;39.36
73453;BME280;61687;56.232;43.854;2023-06-19T16:59:09;100423.75;;;18.56;39.40
73453;BME280;61687;56.232;43.854;2023-06-19T17:01:35;100422.16;;;18.55;39.65
73453;BME280;61687;56.232;43.854;2023-06-19T17:04:02;100422.16;;;18.55;40.39
73453;BME280;61687;56.232;43.854;2023-06-19T17:06:28;100417.81;;;18.54;40.73
73453;BME280;61687;56.232;43.854;2023-06-19T17:08:54;100414.69;;;18.52;40.21
73453;BME280;61687;56.232;43.854;2023-06-19T17:11:20;100421.88;;;18.50;40.63
73453;BME280;61687;56.232;43.854;2023-06-19T17:13:46;100417.09;;;18.50;40.50
73453;BME280;61687;56.232;43.854;2023-06-19T17:16:12;100416.25;;;18.53;40.64
73453;BME280;61687;56.232;43.854;2023-06-19T17:18:38;100409.13;;;18.52;40.54
73453;BME280;61687;56.232;43.854;2023-06-19T17:21:03;100414.28;;;18.54;41.39
73453;BME280;61687;56.232;43.854;2023-06-19T17:23:29;100403.94;;;18.54;41.60
73453;BME280;61687;56.232;43.854;2023-06-19T17:25:55;100404.06;;;18.47;41.16
73453;BME280;61687;56.232;43.854;2023-06-19T17:28:21;100403.34;;;18.43;41.50
73453;BME280;61687;56.232;43.854;2023-06-19T17:30:46;100401.41;;;18.40;41.94
73453;BME280;61687;56.232;43.854;2023-06-19T17:33:13;100399.41;;;18.40;42.31
73453;BME280;61687;56.232;43.854;2023-06-19T17:35:38;100402.25;;;18.37;42.80
73453;BME280;61687;56.232;43.854;2023-06-19T17:38:04;100405.44;;;18.35;43.28
73453;BME280;61687;56.232;43.854;2023-06-19T17:40:30;100404.72;;;18.31;43.72
73453;BME280;61687;56.232;43.854;2023-06-19T17:42:56;100396.44;;;18.27;43.04
73453;BME280;61687;56.232;43.854;2023-06-19T17:45:22;100389.78;;;18.21;43.34
73453;BME280;61687;56.232;43.854;2023-06-19T17:47:48;100392.66;;;18.14;43.50
73453;BME280;61687;56.232;43.854;2023-06-19T17:50:14;100393.50;;;18.11;43.48